Latest Weather Observations for Murrurundi Gap

IDN60801

Issued at 7:12 pm EDT Wednesday 22 January 2020 (issued every 10 minutes, with the page automatically refreshed every 10 minutes)

About weather observations | Map of weather stations | Latest weather observations for NSW | Other Formats
Station Details ID: 061392 Name: MURRURUNDI GAP AWS Lat: -31.74 Lon: 150.79 Height: 729.4 m
Data from the previous 72 hours. | See also: Recent months at Murrurundi Gap
Date/Time
EDT
Temp
°C
App
Temp
°C
Dew
Point
°C
Rel
Hum
%
Delta-T
°C
Wind Press
QNH
hPa
Press
MSL
hPa
Rain since
9am
mm
Dir  Spd
km/h
Gust
km/h
Spd
kts
Gust
kts
22/07:00pm 32.0 24.8 -2.1 11 16.5 NW 26 35 14 19 1009.6 1005.3 0.0
22/06:30pm 32.3 24.4 -1.9 11 16.6 NW 30 39 16 21 1009.4 1005.1 0.0
22/06:00pm 32.4 25.8 -0.6 12 16.4 NW 24 32 13 17 1009.7 1005.4 0.0
22/05:30pm 32.3 24.5 -0.7 12 16.4 NNW 30 43 16 23 1009.7 1005.4 0.0
22/05:00pm 32.4 25.0 -0.6 12 16.4 NW 28 39 15 21 1010.2 1005.8 0.0
22/04:41pm 32.1 24.7 -0.9 12 16.3 NW 28 46 15 25 1010.3 1005.9 0.0
22/04:30pm 32.7 24.6 -0.4 12 16.5 NNW 32 43 17 23 1010.3 1005.9 0.0
22/04:00pm 31.9 23.7 0.1 13 16.0 NW 33 46 18 25 1010.9 1006.6 0.0
22/03:30pm 31.6 23.5 0.9 14 15.6 NW 33 48 18 26 1011.0 1006.7 0.0
22/03:17pm 32.2 24.7 1.3 14 15.8 NW 30 54 16 29 1011.1 1006.8 0.0
22/03:00pm 30.8 23.1 2.1 16 14.8 NNW 32 46 17 25 1011.8 1007.5 0.0
22/02:30pm 31.1 23.3 1.4 15 15.1 NW 32 43 17 23 1012.0 1007.7 0.0
22/02:02pm 30.7 22.8 2.0 16 14.7 NW 33 52 18 28 1012.1 1007.8 0.0
22/02:00pm 30.4 23.1 2.6 17 14.4 NW 30 43 16 23 1012.6 1008.3 0.0
22/01:30pm 30.1 21.7 1.5 16 14.5 NW 35 46 19 25 1012.7 1008.4 0.0
22/01:00pm 29.9 23.7 2.2 17 14.2 NW 24 43 13 23 1013.3 1009.0 0.0
22/12:30pm 28.8 21.1 2.1 18 13.6 NW 32 44 17 24 1013.8 1009.5 0.0
22/12:00pm 29.1 23.4 3.1 19 13.5 NW 22 39 12 21 1014.4 1010.1 0.0
22/11:30am 28.0 22.7 5.0 23 12.2 NW 22 30 12 16 1014.6 1010.3 0.0
22/11:00am 27.6 21.8 4.6 23 12.1 NNW 24 33 13 18 1014.9 1010.6 0.0
22/10:30am 26.7 22.1 5.6 26 11.3 NW 19 32 10 17 1015.1 1010.8 0.0
22/10:00am 26.1 22.5 6.7 29 10.5 N 15 19 8 10 1015.2 1010.9 0.0
22/09:30am 25.2 23.1 8.2 34 9.4 NW 9 13 5 7 1015.1 1010.8 0.0
22/09:00am 23.1 22.5 12.4 51 6.3 ESE 7 11 4 6 1015.0 1010.7 0.0
22/08:30am 21.4 20.6 12.8 58 5.1 ESE 9 13 5 7 1014.8 1010.5 0.0
22/08:00am 19.7 18.1 12.7 64 4.1 ESE 13 15 7 8 1014.5 1010.2 0.0
22/07:30am 18.9 17.5 13.3 70 3.3 ESE 13 15 7 8 1014.0 1009.7 0.0
22/07:00am 17.6 16.2 13.3 76 2.5 SE 13 15 7 8 1013.8 1009.5 0.0
22/06:30am 16.6 14.9 13.7 83 1.7 SE 15 17 8 9 1013.4 1009.1 0.0
22/06:00am 16.6 15.4 13.9 84 1.6 SE 13 15 7 8 1013.2 1008.9 0.0
22/05:30am 16.9 15.2 13.6 81 1.9 SE 15 15 8 8 1013.0 1008.6 0.0
22/05:00am 17.1 15.5 14.0 82 1.8 SE 15 17 8 9 1012.7 1008.4 0.0
22/04:30am 17.0 14.9 13.7 81 1.9 SE 17 17 9 9 1012.6 1008.3 0.0
22/04:00am 17.2 15.5 13.5 79 2.2 SE 15 17 8 9 1012.7 1008.4 0.0
22/03:30am 17.4 15.8 13.9 80 2.1 SE 15 17 8 9 1012.9 1008.5 0.0
22/03:00am 17.7 15.2 12.2 70 3.1 SE 17 17 9 9 1013.0 1008.6 0.0
22/02:30am 18.3 15.4 11.1 63 4.0 SE 17 17 9 9 1012.9 1008.5 0.0
22/02:00am 19.0 15.8 8.6 51 5.6 SE 15 17 8 9 1012.7 1008.4 0.0
22/01:30am 20.7 17.8 6.6 40 7.4 ESE 11 13 6 7 1012.9 1008.5 0.0
22/01:00am 22.2 18.8 6.0 35 8.5 ESE 13 15 7 8 1012.9 1008.5 0.0
22/12:30am 23.4 20.0 5.8 32 9.2 SE 13 15 7 8 1012.9 1008.5 0.0
22/12:00am 24.1 21.5 5.9 31 9.6 SE 9 13 5 7 1012.9 1008.5 0.0
 
Date/Time
EDT
Temp
°C
App
Temp
°C
Dew
Point
°C
Rel
Hum
%
Delta-T
°C
Wind Press
QNH
hPa
Press
MSL
hPa
Rain since
9am
mm
Dir  Spd
km/h
Gust
km/h
Spd
kts
Gust
kts
21/11:30pm 24.2 21.2 6.0 31 9.6 ESE 11 15 6 8 1013.0 1008.6 0.0
21/11:00pm 23.8 20.7 5.7 31 9.5 ESE 11 15 6 8 1012.9 1008.5 0.0
21/10:30pm 24.5 22.1 4.3 27 10.4 ESE 6 9 3 5 1012.9 1008.5 0.0
21/10:00pm 25.3 23.7 4.4 26 10.8 WNW 2 6 1 3 1012.6 1008.3 0.0
21/09:30pm 25.8 23.2 4.3 25 11.2 NNW 7 13 4 7 1012.3 1008.0 0.0
21/09:00pm 26.5 23.3 3.1 22 12.0 NNW 9 17 5 9 1012.1 1007.8 0.0
21/08:30pm 26.5 23.6 2.4 21 12.1 NW 7 9 4 5 1011.8 1007.5 0.0
21/08:00pm 27.4 23.3 2.5 20 12.7 NNW 13 19 7 10 1011.5 1007.1 0.0
21/07:30pm 28.1 22.8 1.6 18 13.3 NW 19 26 10 14 1011.0 1006.7 0.0
21/07:00pm 28.5 23.1 2.7 19 13.3 NW 20 30 11 16 1010.7 1006.4 0.0
21/06:30pm 28.8 22.7 2.9 19 13.4 NW 24 32 13 17 1010.4 1006.0 0.0
21/06:00pm 28.7 21.0 2.1 18 13.5 NNW 32 43 17 23 1010.2 1005.8 0.0
21/05:30pm 28.8 22.0 2.9 19 13.4 NW 28 43 15 23 1010.1 1005.7 0.0
21/05:00pm 28.5 21.9 4.1 21 12.8 NW 28 44 15 24 1009.9 1005.5 0.0
21/04:30pm 28.9 21.6 4.4 21 13.0 WNW 32 48 17 26 1010.2 1005.8 0.0
21/04:23pm 29.0 22.1 4.5 21 13.0 NW 30 48 16 26 1010.1 1005.7 0.0
21/04:00pm 28.0 20.0 3.7 21 12.7 NW 35 52 19 28 1010.3 1005.9 0.0
21/03:53pm 28.5 21.5 4.1 21 12.8 WNW 30 52 16 28 1010.1 1005.7 0.0
21/03:30pm 28.6 20.8 4.8 22 12.7 WNW 35 46 19 25 1010.5 1006.1 0.0
21/03:06pm 28.3 20.9 5.2 23 12.4 NW 33 52 18 28 1010.7 1006.4 0.0
21/03:00pm 27.7 19.6 5.3 24 12.0 NW 37 54 20 29 1010.5 1006.1 0.0
21/02:38pm 27.8 20.6 4.8 23 12.2 NW 32 52 17 28 1010.6 1006.3 0.0
21/02:30pm 27.1 19.3 4.8 24 11.8 NW 35 46 19 25 1010.8 1006.5 0.0
21/02:00pm 27.4 20.1 4.5 23 12.1 NNW 32 41 17 22 1011.0 1006.7 0.0
21/01:48pm 26.7 18.7 3.9 23 11.8 NNW 35 54 19 29 1010.8 1006.5 0.0
21/01:30pm 26.9 18.7 4.6 24 11.7 NW 37 52 20 28 1011.0 1006.7 0.0
21/01:26pm 27.3 19.3 5.6 25 11.6 NW 37 56 20 30 1011.5 1007.1 0.0
21/01:06pm 26.1 17.4 4.0 24 11.4 WNW 39 54 21 29 1011.4 1007.0 0.0
21/01:00pm 26.1 17.3 3.4 23 11.6 WNW 39 54 21 29 1011.6 1007.2 0.0
21/12:30pm 25.9 17.9 3.8 24 11.4 NW 35 54 19 29 1011.8 1007.5 0.0
21/12:12pm 25.7 17.9 4.8 26 10.9 NW 35 54 19 29 1011.8 1007.5 0.0
21/12:00pm 25.0 16.6 3.6 25 10.9 NW 37 50 20 27 1012.1 1007.8 0.0
21/11:30am 24.8 16.3 5.1 28 10.3 NW 39 56 21 30 1012.0 1007.7 0.0
21/11:23am 24.0 15.6 3.9 27 10.2 NW 37 56 20 30 1011.7 1007.3 0.0
21/11:00am 23.6 15.7 4.5 29 9.8 NW 35 46 19 25 1012.2 1007.9 0.0
21/10:30am 22.9 15.7 4.9 31 9.3 NW 32 43 17 23 1012.3 1008.0 0.0
21/10:00am 22.4 17.4 6.6 36 8.4 NW 22 28 12 15 1012.5 1008.2 0.0
21/09:30am 21.3 16.8 6.0 37 8.0 NW 19 24 10 13 1012.4 1008.1 0.0
21/09:00am 20.7 15.1 5.5 37 7.8 NW 24 30 13 16 1012.2 1007.9 0.0
21/08:30am 20.1 14.8 5.0 37 7.7 NW 22 28 12 15 1012.0 1007.7 0.0
21/08:00am 19.8 16.2 6.9 43 6.8 WNW 15 19 8 10 1011.7 1007.3 0.0
21/07:30am 18.7 16.5 6.2 44 6.4 WNW 7 9 4 5 1011.1 1006.8 0.0
21/07:00am 18.5 15.5 6.0 44 6.4 WNW 11 15 6 8 1010.9 1006.6 0.0
21/06:30am 18.8 16.5 5.6 42 6.7 NW 7 9 4 5 1010.4 1006.0 0.0
21/06:00am 19.2 15.3 5.3 40 7.1 NNW 15 17 8 9 1010.0 1005.6 0.0
21/05:30am 19.3 16.2 5.7 41 7.0 NNW 11 13 6 7 1009.4 1005.1 0.0
21/05:00am 19.1 16.1 6.2 43 6.7 W 11 15 6 8 1008.8 1004.4 0.0
21/04:30am 19.5 16.1 5.9 41 7.0 W 13 17 7 9 1008.6 1004.2 0.0
21/04:00am 19.1 15.8 6.6 44 6.5 W 13 15 7 8 1008.5 1004.1 0.0
21/03:30am 20.4 17.0 6.0 39 7.5 WNW 13 17 7 9 1008.7 1004.3 0.0
21/03:00am 20.5 16.4 6.1 39 7.5 NW 17 24 9 13 1008.6 1004.2 0.0
21/02:30am 20.8 16.7 6.0 38 7.7 NW 17 20 9 11 1008.8 1004.4 0.0
21/02:00am 20.7 16.1 6.6 40 7.4 WNW 20 22 11 12 1008.8 1004.4 0.0
21/01:30am 21.4 16.3 6.1 37 8.0 NW 22 28 12 15 1008.8 1004.4 0.0
21/01:00am 22.0 17.9 6.3 36 8.3 NW 17 20 9 11 1009.0 1004.6 0.0
21/12:30am 22.6 18.5 6.0 34 8.7 NNW 17 20 9 11 1009.0 1004.6 0.0
21/12:00am 22.9 18.8 6.2 34 8.8 NNW 17 22 9 12 1009.1 1004.7 0.0
 
Date/Time
EDT
Temp
°C
App
Temp
°C
Dew
Point
°C
Rel
Hum
%
Delta-T
°C
Wind Press
QNH
hPa
Press
MSL
hPa
Rain since
9am
mm
Dir  Spd
km/h
Gust
km/h
Spd
kts
Gust
kts
20/11:30pm 23.1 19.7 6.0 33 9.0 NW 13 19 7 10 1009.2 1004.8 0.0
20/11:00pm 23.2 20.1 5.6 32 9.2 NW 11 15 6 8 1009.1 1004.7 0.0
20/10:30pm 23.9 19.9 4.8 29 9.9 NW 15 20 8 11 1008.7 1004.3 0.0
20/10:00pm 24.4 19.9 4.2 27 10.4 NW 17 22 9 12 1008.3 1004.0 0.0
20/09:30pm 25.3 19.3 3.3 24 11.2 NW 24 30 13 16 1007.6 1003.2 0.0
20/09:00pm 26.0 18.2 2.7 22 11.8 NW 33 43 18 23 1006.5 1002.1 0.0
20/08:30pm 27.0 17.7 2.8 21 12.3 NW 41 52 22 28 1005.7 1001.3 0.0
20/08:01pm 27.9 19.1 5.5 24 12.0 NW 41 59 22 32 1004.8 1000.4 0.0
20/08:00pm 27.9 18.7 5.5 24 12.1 NW 43 59 23 32 1004.8 1000.4 0.0
20/07:30pm 29.2 18.8 6.0 23 12.6 NW 50 70 27 38 1003.6 999.2 0.0
20/07:00pm 30.1 18.8 5.4 21 13.4 NW 54 74 29 40 1003.0 998.5 0.0
20/06:35pm 30.3 20.6 7.5 24 12.8 NW 48 67 26 36 1002.9 998.4 0.0
20/06:30pm 29.7 20.6 11.2 31 11.0 NW 50 67 27 36 1002.8 998.3 0.0
20/06:27pm 29.7 21.0 11.2 31 11.0 NW 48 67 26 36 1002.9 998.4 0.0
20/06:14pm 29.5 20.7 11.1 32 10.9 NW 48 63 26 34 1002.4 998.0 0.0
20/06:00pm 29.1 22.5 11.2 33 10.6 NNW 37 52 20 28 1002.9 998.4 0.0
20/05:30pm 28.5 21.7 12.0 36 9.9 NNW 39 61 21 33 1003.1 998.6 0.0
20/05:24pm 28.5 20.6 11.6 35 10.0 NNW 44 61 24 33 1002.9 998.4 0.0
20/05:19pm 29.1 19.7 11.6 33 10.4 NNW 52 76 28 41 1003.1 998.6 0.0
20/05:02pm 31.3 20.4 9.5 26 12.7 NNW 57 78 31 42 1001.4 996.9 0.0
20/05:00pm 31.0 20.3 10.4 28 12.2 NNW 57 70 31 38 1001.6 997.1 0.0
20/04:30pm 30.5 20.1 11.5 31 11.4 NW 57 78 31 42 1002.4 998.0 0.0
20/04:00pm 30.9 20.3 10.8 29 12.0 NW 57 76 31 41 1001.7 997.2 0.0
20/03:30pm 30.7 19.4 9.6 27 12.3 NW 59 80 32 43 1001.7 997.2 0.0
20/03:00pm 30.7 19.6 11.6 31 11.5 NW 61 83 33 45 1001.8 997.3 0.0
20/02:30pm 30.9 19.3 11.3 30 11.7 NW 63 85 34 46 1001.7 997.2 0.0
20/02:27pm 30.8 20.1 10.2 28 12.1 NW 57 85 31 46 1001.5 997.0 0.0
20/02:00pm 30.2 20.5 13.0 34 10.6 NW 56 74 30 40 1003.5 999.1 0.0
20/01:30pm 28.9 20.8 14.3 40 9.1 NW 50 69 27 37 1004.6 1000.2 0.0
20/01:04pm 29.2 20.9 13.8 39 9.5 NW 50 72 27 39 1004.3 999.8 0.0
20/01:00pm 28.8 20.9 13.9 40 9.2 NW 48 65 26 35 1004.3 999.8 0.0
20/12:30pm 28.1 22.3 16.1 48 7.6 NNW 41 59 22 32 1005.6 1001.1 0.0
20/12:16pm 28.0 22.2 16.0 48 7.6 NW 41 59 22 32 1005.5 1001.0 0.0
20/12:00pm 27.8 22.4 15.1 46 8.0 NNW 37 54 20 29 1005.8 1001.4 0.0
20/11:37am 27.3 23.3 16.3 51 7.0 NNW 32 52 17 28 1006.4 1002.0 0.0
20/11:30am 27.2 23.2 16.2 51 7.0 NNW 32 48 17 26 1006.8 1002.5 0.0
20/11:01am 27.0 22.1 16.3 52 6.8 NW 37 56 20 30 1006.7 1002.3 0.0
20/11:00am 27.0 22.4 16.0 51 7.0 NW 35 50 19 27 1006.7 1002.3 0.0
20/10:35am 26.2 22.3 16.4 54 6.2 NNW 32 50 17 27 1007.0 1002.6 0.0
20/10:30am 26.1 23.1 16.9 57 5.9 NW 28 43 15 23 1007.3 1002.9 0.0
20/10:00am 24.2 22.6 17.4 65 4.4 NW 22 30 12 16 1007.7 1003.3 0.0
20/09:30am 24.0 21.8 17.0 65 4.5 NNW 24 30 13 16 1007.7 1003.3 0.0
20/09:00am 24.5 23.3 17.5 65 4.5 NNW 20 28 11 15 1007.9 1003.5 0.0
20/08:30am 23.3 22.6 17.3 69 3.8 NW 17 22 9 12 1007.7 1003.3 0.0
20/08:00am 22.6 21.2 17.1 71 3.5 NNW 20 28 11 15 1007.6 1003.2 0.0
20/07:30am 21.9 21.0 16.8 73 3.2 NNW 17 24 9 13 1007.4 1003.0 0.0
20/07:00am 21.6 21.1 17.0 75 2.9 NW 15 20 8 11 1007.1 1002.7 0.0
20/06:30am 21.6 21.2 17.2 76 2.8 NNW 15 20 8 11 1007.1 1002.7 0.0
20/06:00am 21.6 21.4 17.6 78 2.6 N 15 19 8 10 1006.7 1002.3 0.0
20/05:54am 21.3 21.6 17.9 81 2.2 NNE 13 19 7 10 1006.6 1002.2 0.0
20/05:34am 19.2 20.5 19.2 100 0.0 N 11 20 6 11 1006.7 1002.3 0.0
20/05:30am 19.3 21.0 19.3 100 0.0 N 9 15 5 8 1006.7 1002.3 0.0
20/05:00am 18.3 18.8 18.3 100 0.0 SE 13 15 7 8 1006.6 1002.2 0.0
20/04:30am 18.4 18.5 18.4 100 0.0 ESE 15 19 8 10 1006.4 1002.0 0.0
20/04:00am 18.3 17.6 18.3 100 0.0 SE 19 22 10 12 1006.5 1002.1 0.0
20/03:30am 18.3 17.1 18.3 100 0.0 SE 22 26 12 14 1006.4 1002.0 0.0
20/03:00am 18.3 17.4 18.3 100 0.0 SE 20 28 11 15 1006.5 1002.1 0.0
20/02:30am 18.4 17.6 18.4 100 0.0 SE 20 24 11 13 1006.8 1002.5 0.0
20/02:17am 18.4 17.8 18.4 100 0.0 ESE 19 22 10 12 1006.8 1002.5 0.0
20/02:03am 18.5 17.9 18.5 100 0.0 ESE 19 20 10 11 1006.7 1002.3 0.0
20/02:00am 18.6 18.1 18.6 100 0.0 ESE 19 22 10 12 1006.7 1002.3 0.0
20/01:30am 18.3 17.4 18.3 100 0.0 ESE 20 24 11 13 1007.0 1002.6 0.0
20/01:20am 18.4 17.8 18.4 100 0.0 SE 19 24 10 13 1007.2 1002.8 0.0
20/01:00am 18.2 17.9 18.2 100 0.0 ESE 17 20 9 11 1007.2 1002.8 0.0
20/12:48am 18.4 18.1 18.2 99 0.1 ESE 17 20 9 11 1007.3 1002.9 0.0
20/12:30am 19.2 18.4 18.0 93 0.8 SE 19 20 10 11 1007.1 1002.7 0.0
20/12:00am 19.8 20.4 18.5 92 0.8 ESE 13 17 7 9 1007.4 1003.0 0.0
 
Date/Time
EDT
Temp
°C
App
Temp
°C
Dew
Point
°C
Rel
Hum
%
Delta-T
°C
Wind Press
QNH
hPa
Press
MSL
hPa
Rain since
9am
mm
Dir  Spd
km/h
Gust
km/h
Spd
kts
Gust
kts
19/11:30pm 19.4 19.5 18.4 94 0.6 ESE 15 19 8 10 1007.2 1002.8 0.0
19/11:00pm 19.8 19.6 18.5 92 0.8 ESE 17 20 9 11 1007.1 1002.7 0.0
19/10:30pm 19.7 19.5 18.5 93 0.8 SE 17 19 9 10 1007.3 1002.9 0.0
19/10:00pm 20.1 19.4 18.2 89 1.2 SE 19 20 10 11 1007.3 1002.9 0.0
19/09:30pm 21.0 19.9 18.6 86 1.5 SE 22 24 12 13 1007.5 1003.1 0.0
19/09:00pm 21.1 20.3 18.5 85 1.7 SE 20 24 11 13 1007.4 1003.0 0.0
19/08:30pm 21.6 20.3 18.2 81 2.2 SE 22 28 12 15 1007.2 1002.8 0.0
19/08:00pm 21.9 20.9 17.9 78 2.6 ESE 20 26 11 14 1007.0 1002.6 0.0
19/07:30pm 22.5 20.6 17.6 74 3.1 ESE 24 30 13 16 1006.5 1002.1 0.0

Other formats

Comma delimited format used in spreadsheet applications
http://www.bom.gov.au/fwo/IDN60801/IDN60801.95747.axf

JavaScript Object Notation format (JSON) in row-major order
http://www.bom.gov.au/fwo/IDN60801/IDN60801.95747.json

Data quality

Most of these data are generated automatically and are frequently updated. Quality checks on data are not normally performed. It is possible for incorrect values to appear. Refer to information at About Latest Weather Observations and please check the disclaimer before using these data.